createdAt,value
2018-12-17T00:00:32.744Z,19.90
2018-12-17T00:03:03.158Z,19.90
2018-12-17T00:05:41.568Z,19.95
2018-12-17T00:08:09.286Z,23.00
2018-12-17T00:10:41.294Z,21.75
2018-12-17T00:13:13.474Z,21.48
2018-12-17T00:15:45.655Z,22.15
2018-12-17T00:18:17.798Z,21.93
2018-12-17T00:20:52.284Z,20.30
2018-12-17T00:23:24.181Z,21.20
2018-12-17T00:25:56.466Z,21.57
2018-12-17T00:28:28.351Z,21.00
2018-12-17T00:30:58.369Z,20.15
2018-12-17T00:33:30.273Z,18.75
2018-12-17T00:36:02.343Z,18.67
2018-12-17T00:38:36.819Z,19.57
2018-12-17T00:41:10.726Z,21.07
2018-12-17T00:43:43.046Z,18.23
2018-12-17T00:46:13.126Z,19.10
2018-12-17T00:48:47.137Z,19.52
2018-12-17T00:51:18.846Z,19.67
2018-12-17T00:53:50.831Z,19.32
2018-12-17T00:56:21.130Z,19.32
2018-12-17T00:58:52.941Z,20.45
2018-12-17T01:01:25.239Z,19.98
2018-12-17T01:03:55.457Z,19.23
2018-12-17T01:06:27.724Z,19.35
2018-12-17T01:08:59.679Z,19.07
2018-12-17T01:11:33.910Z,19.95
2018-12-17T01:14:05.946Z,19.40
2018-12-17T01:16:37.804Z,19.77
2018-12-17T01:19:09.923Z,18.92
2018-12-17T01:21:42.401Z,19.95
2018-12-17T01:24:14.470Z,18.45
2018-12-17T01:26:48.783Z,19.98
2018-12-17T01:29:21.527Z,19.00
2018-12-17T01:31:53.493Z,18.67
2018-12-17T01:34:25.288Z,19.23
2018-12-17T01:36:57.359Z,19.55
2018-12-17T01:39:29.443Z,20.60
2018-12-17T01:42:01.779Z,18.80
2018-12-17T02:04:43.400Z,19.42
2018-12-17T02:07:17.386Z,18.77
2018-12-17T02:09:51.290Z,19.35
2018-12-17T02:12:23.195Z,20.10
2018-12-17T02:14:55.315Z,19.00
2018-12-17T02:17:27.278Z,18.48
2018-12-17T02:20:02.086Z,18.98
2018-12-17T02:22:34.306Z,20.23
2018-12-17T02:25:06.126Z,20.02
2018-12-17T02:27:38.070Z,19.07
2018-12-17T02:30:10.400Z,20.05
2018-12-17T02:32:42.344Z,19.90
2018-12-17T02:35:12.466Z,18.75
2018-12-17T02:37:44.200Z,20.50
2018-12-17T02:40:16.207Z,19.32
2018-12-17T02:42:48.071Z,20.48
2018-12-17T02:45:20.281Z,19.07
2018-12-17T02:47:52.342Z,20.43
2018-12-17T02:50:24.435Z,20.12
2018-12-17T02:52:56.518Z,19.05
2018-12-17T02:55:28.760Z,21.52
2018-12-17T02:57:58.631Z,19.90
2018-12-17T03:00:30.484Z,22.40
2018-12-17T03:03:02.550Z,20.62
2018-12-17T03:05:33.786Z,19.77
2018-12-17T03:08:05.511Z,19.60
2018-12-17T03:10:39.782Z,18.67
2018-12-17T03:13:10.329Z,19.70
2018-12-17T03:15:42.011Z,20.27
2018-12-17T03:18:14.150Z,20.30
2018-12-17T03:20:45.914Z,19.48
2018-12-17T03:23:17.941Z,20.52
2018-12-17T03:25:50.273Z,21.40
2018-12-17T03:28:22.184Z,19.62
2018-12-17T03:30:56.685Z,21.02
2018-12-17T04:16:40.955Z,21.65
2018-12-17T04:19:11.413Z,20.45
2018-12-17T04:21:53.205Z,20.20
2018-12-17T04:24:25.584Z,19.00
2018-12-17T04:26:57.504Z,21.05
2018-12-17T04:29:29.289Z,19.05
2018-12-17T04:32:01.436Z,20.85
2018-12-17T04:34:33.153Z,20.05
2018-12-17T04:37:05.454Z,20.25
2018-12-17T04:39:37.566Z,20.40
2018-12-17T04:42:09.826Z,19.95
2018-12-17T04:44:44.158Z,18.92
2018-12-17T04:47:15.892Z,19.45
2018-12-17T04:49:48.040Z,20.23
2018-12-17T04:52:20.280Z,18.60
2018-12-17T04:54:52.554Z,18.70
2018-12-17T04:57:24.875Z,17.95
2018-12-17T04:59:56.914Z,19.60
2018-12-17T05:02:31.541Z,20.00
2018-12-17T05:05:06.710Z,20.80
2018-12-17T05:07:39.105Z,17.57
2018-12-17T05:10:13.611Z,19.50
2018-12-17T05:12:45.205Z,20.27
2018-12-17T05:46:59.566Z,17.02
2018-12-17T05:49:27.911Z,17.42
2018-12-17T05:51:56.258Z,17.70
2018-12-17T05:54:24.622Z,17.52
2018-12-17T05:56:52.982Z,17.80
2018-12-17T05:59:28.379Z,17.07
2018-12-17T06:02:04.790Z,15.63
2018-12-17T06:56:40.006Z,18.00
2018-12-17T06:59:08.377Z,18.10
2018-12-17T07:01:36.870Z,18.07
2018-12-17T07:04:05.254Z,19.50
2018-12-17T07:06:33.623Z,19.65
2018-12-17T07:09:01.987Z,18.70
2018-12-17T07:11:30.483Z,19.62
2018-12-17T07:14:00.194Z,22.42
2018-12-17T07:16:28.646Z,21.90
2018-12-17T07:18:57.003Z,21.77
2018-12-17T07:21:25.410Z,21.52
2018-12-17T07:23:53.841Z,22.60
2018-12-17T07:26:22.227Z,24.23
2018-12-17T07:28:50.705Z,23.10
2018-12-17T07:31:22.882Z,24.15
2018-12-17T07:33:52.839Z,23.90
2018-12-17T07:36:22.820Z,23.00
2018-12-17T07:38:51.262Z,21.85
2018-12-17T07:41:33.087Z,23.40
2018-12-17T07:44:07.753Z,22.32
2018-12-17T07:46:42.151Z,22.32
2018-12-17T07:49:14.607Z,23.20
2018-12-17T07:51:46.266Z,21.97
2018-12-17T09:12:05.879Z,17.12
2018-12-17T09:14:41.584Z,18.42
2018-12-17T09:17:12.095Z,14.80
2018-12-17T09:19:46.379Z,18.57
2018-12-17T09:22:19.034Z,17.55
2018-12-17T09:24:50.955Z,18.70
2018-12-17T09:27:22.805Z,18.73
2018-12-17T09:29:55.104Z,20.15
2018-12-17T09:32:27.310Z,18.48
2018-12-17T09:35:01.726Z,18.57
2018-12-17T09:37:34.310Z,19.20
2018-12-17T09:40:10.177Z,21.10
2018-12-17T09:42:48.749Z,20.80
2018-12-17T10:49:43.013Z,16.67
2018-12-17T10:52:17.999Z,17.42
2018-12-17T10:54:50.531Z,18.02
2018-12-17T10:57:22.420Z,18.05
2018-12-17T10:59:54.277Z,18.32
2018-12-17T11:02:30.720Z,18.27
2018-12-17T11:05:12.659Z,17.82
2018-12-17T11:07:44.953Z,18.80
2018-12-17T11:10:17.228Z,16.45
2018-12-17T11:12:49.804Z,16.42
2018-12-17T11:15:21.660Z,16.82
2018-12-17T11:17:53.653Z,16.52
2018-12-17T11:20:28.159Z,16.77
2018-12-17T11:23:03.182Z,16.90
2018-12-17T11:25:34.948Z,17.05
2018-12-17T11:28:09.308Z,16.67
2018-12-17T11:30:46.510Z,16.20
2018-12-17T12:31:00.338Z,15.15
2018-12-17T12:33:24.317Z,15.58
2018-12-17T12:35:52.780Z,15.60
2018-12-17T12:38:21.178Z,14.95
2018-12-17T12:40:51.451Z,16.48
2018-12-17T12:43:23.234Z,14.65
2018-12-17T12:45:53.269Z,17.25
2018-12-17T12:48:25.295Z,17.05
2018-12-17T12:50:57.311Z,17.85
2018-12-17T12:53:29.106Z,17.52
2018-12-17T12:55:57.551Z,18.42
2018-12-17T12:58:29.735Z,16.65
2018-12-17T13:01:07.411Z,16.00
2018-12-17T13:03:31.871Z,15.63
2018-12-17T13:06:00.241Z,17.00
2018-12-17T13:08:28.710Z,16.67
2018-12-17T13:10:57.152Z,17.05
2018-12-17T13:13:25.531Z,16.37
2018-12-17T13:15:53.933Z,17.50
2018-12-17T13:18:23.708Z,17.17
2018-12-17T13:20:53.470Z,17.02
2018-12-17T13:23:25.299Z,17.70
2018-12-17T13:25:55.350Z,15.90
2018-12-17T13:28:29.507Z,16.75
2018-12-17T13:30:57.933Z,17.40
2018-12-17T13:33:26.305Z,18.42
2018-12-17T13:35:56.237Z,18.75
2018-12-17T13:38:28.345Z,19.85
2018-12-17T13:40:56.774Z,18.80
2018-12-17T13:43:28.485Z,22.27
2018-12-17T13:45:56.965Z,18.70
2018-12-17T13:48:25.314Z,19.07
2018-12-17T13:50:53.816Z,17.90
2018-12-17T13:53:27.677Z,18.07
2018-12-17T13:55:56.080Z,17.90
2018-12-17T13:58:24.498Z,18.30
2018-12-17T14:00:53.182Z,18.77
2018-12-17T14:03:21.630Z,21.37
2018-12-17T14:05:50.232Z,19.42
2018-12-17T14:08:18.589Z,19.15
2018-12-17T14:10:53.420Z,17.60
2018-12-17T14:30:58.235Z,18.05
2018-12-17T14:33:26.570Z,18.23
2018-12-17T14:36:00.242Z,19.85
2018-12-17T14:38:28.599Z,18.40
2018-12-17T14:40:56.957Z,17.98
2018-12-17T14:43:25.590Z,18.85
2018-12-17T14:45:54.022Z,18.55
2018-12-17T14:48:22.421Z,19.57
2018-12-17T14:50:50.837Z,17.85
2018-12-17T14:53:19.183Z,17.00
2018-12-17T14:55:47.542Z,16.82
2018-12-17T14:58:15.896Z,18.60
2018-12-17T15:00:44.275Z,18.20
2018-12-17T15:03:12.643Z,18.30
2018-12-17T15:05:41.158Z,19.92
2018-12-17T15:08:09.574Z,20.40
2018-12-17T15:10:37.960Z,17.50
2018-12-17T15:13:06.388Z,17.30
2018-12-17T15:15:34.745Z,17.40
2018-12-17T15:18:03.197Z,17.42
2018-12-17T15:20:31.581Z,18.55
2018-12-17T15:22:59.955Z,17.37
2018-12-17T15:25:29.772Z,18.00
2018-12-17T15:27:58.283Z,19.10
2018-12-17T15:30:26.783Z,19.55
2018-12-17T15:32:55.285Z,17.57
2018-12-17T15:35:23.631Z,18.48
2018-12-17T15:37:52.143Z,17.10
2018-12-17T15:40:20.562Z,18.30
2018-12-17T15:42:48.947Z,17.95
2018-12-17T15:45:17.565Z,19.00
2018-12-17T15:47:45.983Z,18.07
2018-12-17T15:50:14.335Z,18.07
2018-12-17T15:52:42.725Z,17.45
2018-12-17T15:55:11.225Z,17.45
2018-12-17T15:57:39.656Z,17.60
2018-12-17T16:00:10.622Z,17.70
2018-12-17T16:02:39.180Z,17.42
2018-12-17T16:05:07.795Z,18.67
2018-12-17T16:07:36.170Z,17.50
2018-12-17T16:10:05.643Z,17.90
2018-12-17T16:12:34.066Z,19.35
2018-12-17T16:15:02.553Z,18.65
2018-12-17T16:17:30.975Z,17.55
2018-12-17T16:19:59.412Z,16.20
2018-12-17T16:22:27.855Z,17.73
2018-12-17T16:24:56.280Z,16.70
2018-12-17T16:27:24.633Z,16.00
2018-12-17T16:29:53.195Z,16.27
2018-12-17T16:32:21.566Z,17.60
2018-12-17T16:34:49.962Z,17.65
2018-12-17T16:37:18.379Z,19.60
2018-12-17T16:39:50.536Z,19.05
2018-12-17T16:42:22.846Z,18.60
2018-12-17T16:44:55.091Z,18.05
2018-12-17T16:47:27.062Z,22.17
2018-12-17T16:49:58.991Z,19.73
2018-12-17T16:52:33.648Z,21.07
2018-12-17T16:55:06.176Z,18.52
2018-12-17T16:57:40.737Z,18.90
2018-12-17T17:00:11.160Z,19.30
2018-12-17T17:02:45.244Z,17.87
2018-12-17T17:05:16.925Z,19.30
2018-12-17T17:07:48.963Z,15.63
2018-12-17T17:10:20.707Z,17.15
2018-12-17T17:12:50.613Z,15.85
2018-12-17T17:15:22.442Z,15.40
2018-12-17T17:17:54.845Z,16.30
2018-12-17T17:20:26.964Z,16.40
2018-12-17T18:12:14.224Z,14.43
2018-12-17T18:14:46.097Z,15.60
2018-12-17T18:17:16.051Z,30.00
2018-12-17T18:19:48.084Z,21.95
2018-12-17T18:22:20.253Z,17.40
2018-12-17T18:24:52.198Z,27.52
2018-12-17T18:27:26.561Z,22.10
2018-12-17T20:11:10.237Z,18.95
2018-12-17T20:13:44.302Z,18.77
2018-12-17T20:16:17.284Z,19.35
2018-12-17T20:18:49.947Z,19.45
2018-12-17T20:21:30.203Z,20.05
2018-12-17T20:24:07.471Z,19.37
2018-12-17T20:26:54.962Z,19.85
2018-12-17T20:32:24.049Z,19.85
2018-12-17T20:35:01.056Z,24.10
2018-12-17T20:37:33.782Z,20.43
2018-12-17T20:40:18.627Z,27.07
2018-12-17T20:42:48.605Z,20.95
2018-12-17T20:45:24.881Z,27.13
2018-12-17T20:47:57.469Z,21.97
2018-12-17T20:50:28.929Z,27.15
2018-12-17T20:52:58.000Z,23.90
2018-12-17T20:55:44.739Z,22.60
2018-12-17T20:58:21.748Z,22.67
2018-12-17T21:00:58.074Z,20.12
2018-12-17T21:17:54.960Z,18.15
2018-12-17T21:20:27.993Z,15.15
2018-12-17T21:23:02.692Z,16.90
2018-12-17T21:25:34.987Z,19.98
2018-12-17T21:28:08.051Z,15.03
2018-12-17T21:30:42.729Z,15.00
2018-12-17T21:33:16.510Z,14.38
2018-12-17T21:35:49.149Z,16.80
2018-12-17T21:38:21.426Z,14.73
2018-12-17T21:40:53.613Z,13.45
2018-12-17T21:43:26.116Z,14.47
2018-12-17T21:46:00.935Z,13.65
2018-12-17T21:48:31.172Z,14.73
2018-12-17T21:50:59.900Z,15.10
2018-12-17T21:53:28.432Z,14.85
2018-12-17T21:56:01.083Z,19.60
2018-12-17T21:58:35.388Z,19.90
2018-12-17T22:01:07.722Z,13.18
2018-12-17T22:03:40.319Z,13.98
2018-12-17T22:06:14.439Z,13.55
2018-12-17T22:08:48.486Z,13.83
2018-12-17T22:11:20.145Z,12.13
2018-12-17T22:14:05.862Z,12.20
2018-12-17T22:16:46.809Z,13.35
2018-12-17T22:19:21.010Z,12.60
2018-12-17T22:21:53.484Z,11.15
2018-12-17T22:24:25.751Z,11.75
2018-12-17T22:26:57.639Z,12.95
2018-12-17T22:29:29.971Z,10.95
2018-12-17T22:32:01.976Z,11.30
2018-12-17T22:34:34.182Z,10.98
2018-12-17T22:37:06.287Z,10.55
2018-12-17T22:39:38.564Z,11.55
2018-12-17T22:42:10.691Z,12.75
2018-12-17T22:44:42.895Z,11.75
2018-12-17T22:47:14.669Z,10.95
2018-12-17T22:49:47.043Z,10.82
2018-12-17T22:52:19.078Z,11.85
2018-12-17T22:54:51.019Z,10.10
2018-12-17T22:57:25.638Z,11.25
2018-12-17T22:59:57.413Z,10.98
2018-12-17T23:02:30.108Z,25.60
2018-12-17T23:05:04.485Z,12.40
2018-12-17T23:07:39.300Z,10.53
2018-12-17T23:10:23.064Z,11.50
2018-12-17T23:13:06.559Z,11.28
2018-12-17T23:15:49.880Z,11.60
2018-12-17T23:18:22.671Z,11.05
2018-12-17T23:23:43.380Z,10.00
2018-12-17T23:26:15.050Z,10.48
2018-12-17T23:28:46.915Z,10.60
2018-12-17T23:31:18.566Z,10.68
2018-12-17T23:33:50.679Z,10.68
2018-12-17T23:36:22.711Z,9.73
2018-12-17T23:38:54.732Z,10.28
2018-12-17T23:41:26.956Z,9.70
